sensor_id;sensor_type;location;lat;lon;timestamp;P1;durP1;ratioP1;P2;durP2;ratioP2
65835;SDS011;52595;51.608;7.216;2024-03-29T00:01:09;4.45;;;1.58;;
65835;SDS011;52595;51.608;7.216;2024-03-29T00:03:35;3.17;;;1.45;;
65835;SDS011;52595;51.608;7.216;2024-03-29T00:06:00;4.55;;;1.50;;
65835;SDS011;52595;51.608;7.216;2024-03-29T00:08:26;4.03;;;1.60;;
65835;SDS011;52595;51.608;7.216;2024-03-29T00:10:51;2.08;;;1.67;;
65835;SDS011;52595;51.608;7.216;2024-03-29T00:13:17;3.28;;;1.73;;
65835;SDS011;52595;51.608;7.216;2024-03-29T00:15:42;4.88;;;1.88;;
65835;SDS011;52595;51.608;7.216;2024-03-29T00:18:10;4.35;;;1.70;;
65835;SDS011;52595;51.608;7.216;2024-03-29T00:20:36;4.43;;;1.58;;
65835;SDS011;52595;51.608;7.216;2024-03-29T00:23:01;3.38;;;1.65;;
65835;SDS011;52595;51.608;7.216;2024-03-29T00:25:26;2.85;;;1.50;;
65835;SDS011;52595;51.608;7.216;2024-03-29T00:27:52;4.32;;;1.80;;
65835;SDS011;52595;51.608;7.216;2024-03-29T00:30:17;2.88;;;1.40;;
65835;SDS011;52595;51.608;7.216;2024-03-29T00:32:43;2.85;;;1.55;;
65835;SDS011;52595;51.608;7.216;2024-03-29T00:35:08;4.57;;;1.60;;
65835;SDS011;52595;51.608;7.216;2024-03-29T00:37:33;3.75;;;1.80;;
65835;SDS011;52595;51.608;7.216;2024-03-29T00:39:59;3.90;;;1.67;;
65835;SDS011;52595;51.608;7.216;2024-03-29T00:42:24;2.67;;;1.60;;
65835;SDS011;52595;51.608;7.216;2024-03-29T00:44:50;4.55;;;1.67;;
65835;SDS011;52595;51.608;7.216;2024-03-29T00:47:15;2.25;;;1.50;;
65835;SDS011;52595;51.608;7.216;2024-03-29T00:49:41;4.90;;;1.70;;
65835;SDS011;52595;51.608;7.216;2024-03-29T00:52:06;2.65;;;1.70;;
65835;SDS011;52595;51.608;7.216;2024-03-29T00:54:32;5.05;;;1.67;;
65835;SDS011;52595;51.608;7.216;2024-03-29T00:56:57;4.18;;;1.73;;
65835;SDS011;52595;51.608;7.216;2024-03-29T00:59:23;4.70;;;1.70;;
65835;SDS011;52595;51.608;7.216;2024-03-29T01:01:49;2.67;;;1.70;;
65835;SDS011;52595;51.608;7.216;2024-03-29T01:04:14;2.15;;;1.58;;
65835;SDS011;52595;51.608;7.216;2024-03-29T01:06:40;5.10;;;1.90;;
65835;SDS011;52595;51.608;7.216;2024-03-29T01:09:06;3.67;;;1.75;;
65835;SDS011;52595;51.608;7.216;2024-03-29T01:11:32;2.97;;;1.50;;
65835;SDS011;52595;51.608;7.216;2024-03-29T01:13:57;3.95;;;1.80;;
65835;SDS011;52595;51.608;7.216;2024-03-29T01:16:23;4.00;;;1.70;;
65835;SDS011;52595;51.608;7.216;2024-03-29T01:18:48;3.67;;;1.60;;
65835;SDS011;52595;51.608;7.216;2024-03-29T01:21:14;4.57;;;1.80;;
65835;SDS011;52595;51.608;7.216;2024-03-29T01:23:39;5.38;;;1.70;;
65835;SDS011;52595;51.608;7.216;2024-03-29T01:26:06;5.75;;;1.80;;
65835;SDS011;52595;51.608;7.216;2024-03-29T01:28:32;5.88;;;1.60;;
65835;SDS011;52595;51.608;7.216;2024-03-29T01:30:57;2.65;;;1.52;;
65835;SDS011;52595;51.608;7.216;2024-03-29T01:33:25;4.18;;;1.77;;
65835;SDS011;52595;51.608;7.216;2024-03-29T01:35:51;2.53;;;1.50;;
65835;SDS011;52595;51.608;7.216;2024-03-29T01:38:17;2.15;;;1.55;;
65835;SDS011;52595;51.608;7.216;2024-03-29T01:40:43;4.70;;;1.77;;
65835;SDS011;52595;51.608;7.216;2024-03-29T01:43:08;4.22;;;1.60;;
65835;SDS011;52595;51.608;7.216;2024-03-29T01:45:39;2.53;;;1.60;;
65835;SDS011;52595;51.608;7.216;2024-03-29T01:48:08;5.22;;;1.60;;
65835;SDS011;52595;51.608;7.216;2024-03-29T01:50:34;3.42;;;2.00;;
65835;SDS011;52595;51.608;7.216;2024-03-29T01:53:00;3.08;;;1.70;;
65835;SDS011;52595;51.608;7.216;2024-03-29T01:55:26;4.32;;;1.90;;
65835;SDS011;52595;51.608;7.216;2024-03-29T01:57:51;4.60;;;1.70;;
65835;SDS011;52595;51.608;7.216;2024-03-29T02:00:17;3.42;;;1.77;;
65835;SDS011;52595;51.608;7.216;2024-03-29T02:02:43;4.38;;;1.63;;
65835;SDS011;52595;51.608;7.216;2024-03-29T02:05:09;3.70;;;2.10;;
65835;SDS011;52595;51.608;7.216;2024-03-29T02:07:35;4.05;;;2.05;;
65835;SDS011;52595;51.608;7.216;2024-03-29T02:10:01;2.55;;;1.80;;
65835;SDS011;52595;51.608;7.216;2024-03-29T02:12:28;6.45;;;2.80;;
65835;SDS011;52595;51.608;7.216;2024-03-29T02:14:53;3.97;;;1.83;;
65835;SDS011;52595;51.608;7.216;2024-03-29T02:17:19;4.72;;;2.25;;
65835;SDS011;52595;51.608;7.216;2024-03-29T02:19:44;3.63;;;1.80;;
65835;SDS011;52595;51.608;7.216;2024-03-29T02:22:10;5.95;;;1.80;;
65835;SDS011;52595;51.608;7.216;2024-03-29T02:24:40;4.18;;;1.80;;
65835;SDS011;52595;51.608;7.216;2024-03-29T02:27:05;4.88;;;1.90;;
65835;SDS011;52595;51.608;7.216;2024-03-29T02:29:30;2.47;;;1.80;;
65835;SDS011;52595;51.608;7.216;2024-03-29T02:31:56;2.60;;;1.80;;
65835;SDS011;52595;51.608;7.216;2024-03-29T02:34:21;2.35;;;1.90;;
65835;SDS011;52595;51.608;7.216;2024-03-29T02:36:48;3.38;;;2.00;;
65835;SDS011;52595;51.608;7.216;2024-03-29T02:39:13;3.95;;;1.85;;
65835;SDS011;52595;51.608;7.216;2024-03-29T02:41:39;4.68;;;2.10;;
65835;SDS011;52595;51.608;7.216;2024-03-29T02:44:04;7.88;;;2.08;;
65835;SDS011;52595;51.608;7.216;2024-03-29T02:46:30;3.63;;;1.90;;
65835;SDS011;52595;51.608;7.216;2024-03-29T02:48:55;2.22;;;1.90;;
65835;SDS011;52595;51.608;7.216;2024-03-29T02:51:20;3.42;;;2.15;;
65835;SDS011;52595;51.608;7.216;2024-03-29T02:53:46;4.97;;;2.20;;
65835;SDS011;52595;51.608;7.216;2024-03-29T02:56:11;2.78;;;2.00;;
65835;SDS011;52595;51.608;7.216;2024-03-29T02:58:38;6.63;;;2.17;;
65835;SDS011;52595;51.608;7.216;2024-03-29T03:01:07;3.88;;;2.22;;
65835;SDS011;52595;51.608;7.216;2024-03-29T03:03:33;4.30;;;2.05;;
65835;SDS011;52595;51.608;7.216;2024-03-29T03:05:59;3.90;;;2.25;;
65835;SDS011;52595;51.608;7.216;2024-03-29T03:08:25;3.30;;;1.80;;
65835;SDS011;52595;51.608;7.216;2024-03-29T03:11:09;3.38;;;2.10;;
65835;SDS011;52595;51.608;7.216;2024-03-29T03:13:34;2.90;;;2.10;;
65835;SDS011;52595;51.608;7.216;2024-03-29T03:16:00;2.30;;;2.10;;
65835;SDS011;52595;51.608;7.216;2024-03-29T03:18:25;4.30;;;2.20;;
65835;SDS011;52595;51.608;7.216;2024-03-29T03:20:54;3.80;;;2.20;;
65835;SDS011;52595;51.608;7.216;2024-03-29T03:23:21;2.60;;;2.20;;
65835;SDS011;52595;51.608;7.216;2024-03-29T03:25:52;3.08;;;2.00;;
65835;SDS011;52595;51.608;7.216;2024-03-29T03:28:19;3.67;;;1.90;;
65835;SDS011;52595;51.608;7.216;2024-03-29T03:30:44;6.38;;;2.50;;
65835;SDS011;52595;51.608;7.216;2024-03-29T03:33:10;2.80;;;1.80;;
65835;SDS011;52595;51.608;7.216;2024-03-29T03:35:35;2.65;;;1.60;;
65835;SDS011;52595;51.608;7.216;2024-03-29T03:38:00;3.30;;;1.77;;
65835;SDS011;52595;51.608;7.216;2024-03-29T03:40:26;2.13;;;1.92;;
65835;SDS011;52595;51.608;7.216;2024-03-29T03:42:51;3.67;;;1.70;;
65835;SDS011;52595;51.608;7.216;2024-03-29T03:45:17;2.45;;;1.83;;
65835;SDS011;52595;51.608;7.216;2024-03-29T03:47:42;2.55;;;1.70;;
65835;SDS011;52595;51.608;7.216;2024-03-29T03:50:08;2.08;;;1.80;;
65835;SDS011;52595;51.608;7.216;2024-03-29T03:52:33;2.38;;;1.73;;
65835;SDS011;52595;51.608;7.216;2024-03-29T03:54:59;2.63;;;1.50;;
65835;SDS011;52595;51.608;7.216;2024-03-29T03:57:24;1.85;;;1.50;;
65835;SDS011;52595;51.608;7.216;2024-03-29T03:59:50;1.77;;;1.40;;
65835;SDS011;52595;51.608;7.216;2024-03-29T04:02:15;4.07;;;1.30;;
65835;SDS011;52595;51.608;7.216;2024-03-29T04:04:41;2.40;;;1.30;;
65835;SDS011;52595;51.608;7.216;2024-03-29T04:07:06;3.85;;;1.27;;
65835;SDS011;52595;51.608;7.216;2024-03-29T04:09:32;2.47;;;1.35;;
65835;SDS011;52595;51.608;7.216;2024-03-29T04:11:57;2.25;;;1.00;;
65835;SDS011;52595;51.608;7.216;2024-03-29T04:14:22;1.83;;;0.98;;
65835;SDS011;52595;51.608;7.216;2024-03-29T04:16:48;3.70;;;1.00;;
65835;SDS011;52595;51.608;7.216;2024-03-29T04:19:13;2.08;;;1.00;;
65835;SDS011;52595;51.608;7.216;2024-03-29T04:21:38;3.42;;;1.02;;
65835;SDS011;52595;51.608;7.216;2024-03-29T04:24:04;1.38;;;0.80;;
65835;SDS011;52595;51.608;7.216;2024-03-29T04:26:32;2.35;;;1.10;;
65835;SDS011;52595;51.608;7.216;2024-03-29T04:28:58;1.92;;;1.10;;
65835;SDS011;52595;51.608;7.216;2024-03-29T04:31:23;1.75;;;1.00;;
65835;SDS011;52595;51.608;7.216;2024-03-29T04:33:48;2.55;;;1.00;;
65835;SDS011;52595;51.608;7.216;2024-03-29T04:36:14;2.28;;;0.98;;
65835;SDS011;52595;51.608;7.216;2024-03-29T04:38:39;3.70;;;0.95;;
65835;SDS011;52595;51.608;7.216;2024-03-29T04:41:05;1.35;;;0.93;;
65835;SDS011;52595;51.608;7.216;2024-03-29T04:43:30;3.28;;;1.15;;
65835;SDS011;52595;51.608;7.216;2024-03-29T04:46:12;3.17;;;1.10;;
65835;SDS011;52595;51.608;7.216;2024-03-29T04:48:39;2.58;;;1.20;;
65835;SDS011;52595;51.608;7.216;2024-03-29T04:51:06;4.82;;;1.20;;
65835;SDS011;52595;51.608;7.216;2024-03-29T04:53:32;3.85;;;1.13;;
65835;SDS011;52595;51.608;7.216;2024-03-29T04:55:59;2.38;;;1.20;;
65835;SDS011;52595;51.608;7.216;2024-03-29T04:58:25;2.70;;;1.00;;
65835;SDS011;52595;51.608;7.216;2024-03-29T05:00:50;2.50;;;1.30;;
65835;SDS011;52595;51.608;7.216;2024-03-29T05:03:17;3.60;;;1.10;;
65835;SDS011;52595;51.608;7.216;2024-03-29T05:05:43;3.65;;;1.20;;
65835;SDS011;52595;51.608;7.216;2024-03-29T05:08:08;4.88;;;1.23;;
65835;SDS011;52595;51.608;7.216;2024-03-29T05:10:34;2.45;;;1.27;;
65835;SDS011;52595;51.608;7.216;2024-03-29T05:12:59;4.22;;;1.20;;
65835;SDS011;52595;51.608;7.216;2024-03-29T05:15:26;4.72;;;1.50;;
65835;SDS011;52595;51.608;7.216;2024-03-29T05:17:51;6.03;;;1.40;;
65835;SDS011;52595;51.608;7.216;2024-03-29T05:20:18;3.40;;;1.40;;
65835;SDS011;52595;51.608;7.216;2024-03-29T05:22:43;3.17;;;1.60;;
65835;SDS011;52595;51.608;7.216;2024-03-29T05:25:09;5.00;;;1.50;;
65835;SDS011;52595;51.608;7.216;2024-03-29T05:27:34;6.53;;;1.48;;
65835;SDS011;52595;51.608;7.216;2024-03-29T05:30:00;4.38;;;1.50;;
65835;SDS011;52595;51.608;7.216;2024-03-29T05:32:26;4.57;;;1.50;;
65835;SDS011;52595;51.608;7.216;2024-03-29T05:34:51;2.47;;;1.50;;
65835;SDS011;52595;51.608;7.216;2024-03-29T05:37:16;3.10;;;1.65;;
65835;SDS011;52595;51.608;7.216;2024-03-29T05:39:43;5.15;;;1.70;;
65835;SDS011;52595;51.608;7.216;2024-03-29T05:42:08;3.08;;;1.40;;
65835;SDS011;52595;51.608;7.216;2024-03-29T05:44:35;4.80;;;1.73;;
65835;SDS011;52595;51.608;7.216;2024-03-29T05:47:01;6.53;;;1.60;;
65835;SDS011;52595;51.608;7.216;2024-03-29T05:49:29;4.22;;;1.67;;
65835;SDS011;52595;51.608;7.216;2024-03-29T05:51:55;2.72;;;1.38;;
65835;SDS011;52595;51.608;7.216;2024-03-29T05:54:20;4.25;;;1.40;;
65835;SDS011;52595;51.608;7.216;2024-03-29T05:56:47;3.85;;;1.40;;
65835;SDS011;52595;51.608;7.216;2024-03-29T05:59:13;8.65;;;1.70;;
65835;SDS011;52595;51.608;7.216;2024-03-29T06:01:38;3.05;;;1.40;;
65835;SDS011;52595;51.608;7.216;2024-03-29T06:04:04;2.97;;;1.40;;
65835;SDS011;52595;51.608;7.216;2024-03-29T06:06:38;4.32;;;1.80;;
65835;SDS011;52595;51.608;7.216;2024-03-29T06:09:04;2.13;;;1.50;;
65835;SDS011;52595;51.608;7.216;2024-03-29T06:11:30;5.72;;;1.70;;
65835;SDS011;52595;51.608;7.216;2024-03-29T06:13:56;6.78;;;1.73;;
65835;SDS011;52595;51.608;7.216;2024-03-29T06:16:22;5.60;;;1.90;;
65835;SDS011;52595;51.608;7.216;2024-03-29T06:19:07;7.30;;;1.80;;
65835;SDS011;52595;51.608;7.216;2024-03-29T06:21:33;5.38;;;1.90;;
65835;SDS011;52595;51.608;7.216;2024-03-29T06:24:07;5.43;;;1.85;;
65835;SDS011;52595;51.608;7.216;2024-03-29T06:26:40;7.45;;;1.98;;
65835;SDS011;52595;51.608;7.216;2024-03-29T06:29:06;6.05;;;2.15;;
65835;SDS011;52595;51.608;7.216;2024-03-29T06:31:31;4.50;;;2.00;;
65835;SDS011;52595;51.608;7.216;2024-03-29T06:33:59;4.90;;;1.98;;
65835;SDS011;52595;51.608;7.216;2024-03-29T06:36:25;3.97;;;2.08;;
65835;SDS011;52595;51.608;7.216;2024-03-29T06:38:51;6.97;;;2.67;;
65835;SDS011;52595;51.608;7.216;2024-03-29T06:41:17;5.38;;;2.28;;
65835;SDS011;52595;51.608;7.216;2024-03-29T06:43:42;4.45;;;2.20;;
65835;SDS011;52595;51.608;7.216;2024-03-29T06:46:11;5.78;;;2.20;;
65835;SDS011;52595;51.608;7.216;2024-03-29T06:48:37;5.72;;;2.20;;
65835;SDS011;52595;51.608;7.216;2024-03-29T06:51:02;4.22;;;2.08;;
65835;SDS011;52595;51.608;7.216;2024-03-29T06:53:28;7.60;;;2.03;;
65835;SDS011;52595;51.608;7.216;2024-03-29T06:55:59;7.07;;;2.38;;
65835;SDS011;52595;51.608;7.216;2024-03-29T06:58:25;6.00;;;2.17;;
65835;SDS011;52595;51.608;7.216;2024-03-29T07:00:50;5.55;;;2.05;;
65835;SDS011;52595;51.608;7.216;2024-03-29T07:03:17;5.05;;;1.90;;
65835;SDS011;52595;51.608;7.216;2024-03-29T07:05:43;3.08;;;1.90;;
65835;SDS011;52595;51.608;7.216;2024-03-29T07:08:10;6.65;;;2.30;;
65835;SDS011;52595;51.608;7.216;2024-03-29T07:10:35;4.18;;;2.17;;
65835;SDS011;52595;51.608;7.216;2024-03-29T07:13:01;5.35;;;2.20;;
65835;SDS011;52595;51.608;7.216;2024-03-29T07:15:26;6.55;;;2.40;;
65835;SDS011;52595;51.608;7.216;2024-03-29T07:17:51;4.65;;;2.10;;
65835;SDS011;52595;51.608;7.216;2024-03-29T07:20:17;7.05;;;2.35;;
65835;SDS011;52595;51.608;7.216;2024-03-29T07:22:43;4.68;;;1.83;;
65835;SDS011;52595;51.608;7.216;2024-03-29T07:25:10;5.85;;;2.05;;
65835;SDS011;52595;51.608;7.216;2024-03-29T07:27:35;5.60;;;2.17;;
65835;SDS011;52595;51.608;7.216;2024-03-29T07:30:04;5.10;;;2.17;;
65835;SDS011;52595;51.608;7.216;2024-03-29T07:32:32;6.47;;;2.40;;
65835;SDS011;52595;51.608;7.216;2024-03-29T07:34:58;4.75;;;2.40;;
65835;SDS011;52595;51.608;7.216;2024-03-29T07:37:24;5.43;;;2.65;;
65835;SDS011;52595;51.608;7.216;2024-03-29T07:39:50;5.65;;;2.22;;
65835;SDS011;52595;51.608;7.216;2024-03-29T07:42:16;7.70;;;2.65;;
65835;SDS011;52595;51.608;7.216;2024-03-29T07:44:42;5.55;;;2.45;;
65835;SDS011;52595;51.608;7.216;2024-03-29T07:47:08;5.72;;;2.30;;
65835;SDS011;52595;51.608;7.216;2024-03-29T07:49:33;7.00;;;2.50;;
65835;SDS011;52595;51.608;7.216;2024-03-29T07:51:59;8.02;;;2.38;;
65835;SDS011;52595;51.608;7.216;2024-03-29T07:54:27;6.38;;;2.30;;
65835;SDS011;52595;51.608;7.216;2024-03-29T07:56:52;4.60;;;2.13;;
65835;SDS011;52595;51.608;7.216;2024-03-29T07:59:18;6.43;;;2.40;;
65835;SDS011;52595;51.608;7.216;2024-03-29T08:01:44;6.25;;;2.53;;
65835;SDS011;52595;51.608;7.216;2024-03-29T08:04:10;4.47;;;2.22;;
65835;SDS011;52595;51.608;7.216;2024-03-29T08:06:36;7.60;;;2.20;;
65835;SDS011;52595;51.608;7.216;2024-03-29T08:09:01;6.88;;;2.42;;
65835;SDS011;52595;51.608;7.216;2024-03-29T08:11:27;5.38;;;2.10;;
65835;SDS011;52595;51.608;7.216;2024-03-29T08:13:53;4.13;;;1.88;;
65835;SDS011;52595;51.608;7.216;2024-03-29T08:16:18;5.22;;;1.70;;
65835;SDS011;52595;51.608;7.216;2024-03-29T08:18:45;2.88;;;1.80;;
65835;SDS011;52595;51.608;7.216;2024-03-29T08:21:14;2.28;;;1.60;;
65835;SDS011;52595;51.608;7.216;2024-03-29T08:23:40;2.90;;;2.13;;
65835;SDS011;52595;51.608;7.216;2024-03-29T08:26:06;5.45;;;2.10;;
65835;SDS011;52595;51.608;7.216;2024-03-29T08:28:32;5.18;;;1.63;;
65835;SDS011;52595;51.608;7.216;2024-03-29T08:31:03;4.45;;;1.92;;
65835;SDS011;52595;51.608;7.216;2024-03-29T08:33:30;3.63;;;1.90;;
65835;SDS011;52595;51.608;7.216;2024-03-29T08:35:56;5.18;;;1.90;;
65835;SDS011;52595;51.608;7.216;2024-03-29T08:38:23;2.33;;;1.65;;
65835;SDS011;52595;51.608;7.216;2024-03-29T08:40:49;4.18;;;1.80;;
65835;SDS011;52595;51.608;7.216;2024-03-29T08:43:14;4.28;;;1.67;;
65835;SDS011;52595;51.608;7.216;2024-03-29T08:45:43;4.00;;;2.00;;
65835;SDS011;52595;51.608;7.216;2024-03-29T08:48:09;4.05;;;1.88;;
65835;SDS011;52595;51.608;7.216;2024-03-29T08:50:35;3.53;;;2.00;;
65835;SDS011;52595;51.608;7.216;2024-03-29T08:53:01;4.68;;;2.28;;
65835;SDS011;52595;51.608;7.216;2024-03-29T08:55:28;3.67;;;2.15;;
65835;SDS011;52595;51.608;7.216;2024-03-29T08:57:58;4.43;;;2.25;;
65835;SDS011;52595;51.608;7.216;2024-03-29T09:00:24;4.95;;;2.30;;
65835;SDS011;52595;51.608;7.216;2024-03-29T09:02:53;6.22;;;2.42;;
65835;SDS011;52595;51.608;7.216;2024-03-29T09:05:19;4.75;;;2.20;;
65835;SDS011;52595;51.608;7.216;2024-03-29T09:07:47;3.17;;;2.03;;
65835;SDS011;52595;51.608;7.216;2024-03-29T09:10:13;4.03;;;2.40;;
65835;SDS011;52595;51.608;7.216;2024-03-29T09:12:38;5.32;;;2.70;;
65835;SDS011;52595;51.608;7.216;2024-03-29T09:15:04;3.83;;;2.42;;
65835;SDS011;52595;51.608;7.216;2024-03-29T09:17:41;4.60;;;2.53;;
65835;SDS011;52595;51.608;7.216;2024-03-29T09:20:07;7.07;;;2.88;;
65835;SDS011;52595;51.608;7.216;2024-03-29T09:22:34;6.10;;;2.70;;
65835;SDS011;52595;51.608;7.216;2024-03-29T09:24:59;6.93;;;2.60;;
65835;SDS011;52595;51.608;7.216;2024-03-29T09:27:26;6.57;;;2.92;;
65835;SDS011;52595;51.608;7.216;2024-03-29T09:29:52;8.82;;;2.90;;
65835;SDS011;52595;51.608;7.216;2024-03-29T09:32:17;4.25;;;2.55;;
65835;SDS011;52595;51.608;7.216;2024-03-29T09:34:44;5.43;;;2.80;;
65835;SDS011;52595;51.608;7.216;2024-03-29T09:37:10;6.00;;;3.00;;
65835;SDS011;52595;51.608;7.216;2024-03-29T09:39:35;6.88;;;3.00;;
65835;SDS011;52595;51.608;7.216;2024-03-29T09:42:02;5.20;;;3.15;;
65835;SDS011;52595;51.608;7.216;2024-03-29T09:44:29;5.93;;;2.95;;
65835;SDS011;52595;51.608;7.216;2024-03-29T09:46:58;4.60;;;2.92;;
65835;SDS011;52595;51.608;7.216;2024-03-29T09:49:27;11.10;;;3.20;;
65835;SDS011;52595;51.608;7.216;2024-03-29T09:51:53;4.65;;;2.80;;
65835;SDS011;52595;51.608;7.216;2024-03-29T09:54:19;4.80;;;2.50;;
65835;SDS011;52595;51.608;7.216;2024-03-29T09:56:44;5.18;;;2.60;;
65835;SDS011;52595;51.608;7.216;2024-03-29T09:59:10;4.78;;;2.55;;
65835;SDS011;52595;51.608;7.216;2024-03-29T10:01:36;3.63;;;2.35;;
65835;SDS011;52595;51.608;7.216;2024-03-29T10:04:01;4.05;;;2.20;;
65835;SDS011;52595;51.608;7.216;2024-03-29T10:06:29;4.13;;;2.35;;
65835;SDS011;52595;51.608;7.216;2024-03-29T10:08:55;4.28;;;2.40;;
65835;SDS011;52595;51.608;7.216;2024-03-29T10:11:23;5.55;;;2.25;;
65835;SDS011;52595;51.608;7.216;2024-03-29T10:13:49;4.20;;;2.17;;
65835;SDS011;52595;51.608;7.216;2024-03-29T10:16:18;3.08;;;2.20;;
65835;SDS011;52595;51.608;7.216;2024-03-29T10:18:47;5.97;;;2.50;;
65835;SDS011;52595;51.608;7.216;2024-03-29T10:21:13;3.35;;;2.10;;
65835;SDS011;52595;51.608;7.216;2024-03-29T10:23:40;4.47;;;2.15;;
65835;SDS011;52595;51.608;7.216;2024-03-29T10:26:06;2.70;;;1.83;;
65835;SDS011;52595;51.608;7.216;2024-03-29T10:28:32;3.75;;;2.08;;
65835;SDS011;52595;51.608;7.216;2024-03-29T10:31:00;3.10;;;1.73;;
65835;SDS011;52595;51.608;7.216;2024-03-29T10:33:28;4.13;;;2.10;;
65835;SDS011;52595;51.608;7.216;2024-03-29T10:35:58;3.30;;;1.80;;
65835;SDS011;52595;51.608;7.216;2024-03-29T10:38:25;2.55;;;1.67;;
65835;SDS011;52595;51.608;7.216;2024-03-29T10:40:51;2.42;;;1.67;;
65835;SDS011;52595;51.608;7.216;2024-03-29T10:43:17;1.98;;;1.58;;
65835;SDS011;52595;51.608;7.216;2024-03-29T10:45:44;3.85;;;1.77;;
65835;SDS011;52595;51.608;7.216;2024-03-29T10:48:11;5.28;;;2.00;;
65835;SDS011;52595;51.608;7.216;2024-03-29T10:50:40;3.00;;;1.80;;
65835;SDS011;52595;51.608;7.216;2024-03-29T10:53:07;2.38;;;1.65;;
65835;SDS011;52595;51.608;7.216;2024-03-29T10:55:34;3.78;;;1.80;;
65835;SDS011;52595;51.608;7.216;2024-03-29T10:58:00;2.50;;;1.60;;
65835;SDS011;52595;51.608;7.216;2024-03-29T11:00:37;2.38;;;1.60;;
65835;SDS011;52595;51.608;7.216;2024-03-29T11:05:57;2.20;;;1.60;;
65835;SDS011;52595;51.608;7.216;2024-03-29T11:08:27;5.30;;;1.70;;
65835;SDS011;52595;51.608;7.216;2024-03-29T11:10:59;3.25;;;1.40;;
65835;SDS011;52595;51.608;7.216;2024-03-29T11:16:10;5.15;;;1.90;;
65835;SDS011;52595;51.608;7.216;2024-03-29T11:18:36;4.00;;;2.20;;
65835;SDS011;52595;51.608;7.216;2024-03-29T11:21:02;3.17;;;1.60;;
65835;SDS011;52595;51.608;7.216;2024-03-29T11:23:31;5.32;;;1.80;;
65835;SDS011;52595;51.608;7.216;2024-03-29T11:25:57;3.03;;;1.50;;
65835;SDS011;52595;51.608;7.216;2024-03-29T11:28:34;3.13;;;1.45;;
65835;SDS011;52595;51.608;7.216;2024-03-29T11:33:43;4.93;;;1.30;;
65835;SDS011;52595;51.608;7.216;2024-03-29T11:38:36;3.85;;;1.33;;
65835;SDS011;52595;51.608;7.216;2024-03-29T11:41:03;2.35;;;1.30;;
65835;SDS011;52595;51.608;7.216;2024-03-29T11:43:32;1.47;;;1.30;;
65835;SDS011;52595;51.608;7.216;2024-03-29T11:45:59;2.30;;;1.35;;
65835;SDS011;52595;51.608;7.216;2024-03-29T11:48:26;1.58;;;1.20;;
65835;SDS011;52595;51.608;7.216;2024-03-29T11:50:53;3.08;;;1.40;;
65835;SDS011;52595;51.608;7.216;2024-03-29T11:53:19;2.08;;;1.27;;
65835;SDS011;52595;51.608;7.216;2024-03-29T11:55:44;2.67;;;1.50;;
65835;SDS011;52595;51.608;7.216;2024-03-29T11:58:10;2.13;;;1.40;;
65835;SDS011;52595;51.608;7.216;2024-03-29T12:00:37;2.10;;;1.38;;
65835;SDS011;52595;51.608;7.216;2024-03-29T12:03:04;2.92;;;1.73;;
65835;SDS011;52595;51.608;7.216;2024-03-29T12:05:30;2.58;;;1.45;;
65835;SDS011;52595;51.608;7.216;2024-03-29T12:07:56;1.83;;;1.60;;
65835;SDS011;52595;51.608;7.216;2024-03-29T12:10:26;1.65;;;1.20;;
65835;SDS011;52595;51.608;7.216;2024-03-29T12:12:55;2.00;;;1.30;;
65835;SDS011;52595;51.608;7.216;2024-03-29T12:15:23;1.60;;;1.30;;
65835;SDS011;52595;51.608;7.216;2024-03-29T12:17:59;2.20;;;1.30;;
65835;SDS011;52595;51.608;7.216;2024-03-29T12:20:26;2.35;;;1.30;;
65835;SDS011;52595;51.608;7.216;2024-03-29T12:22:54;4.53;;;1.50;;
65835;SDS011;52595;51.608;7.216;2024-03-29T12:25:20;3.03;;;1.20;;
65835;SDS011;52595;51.608;7.216;2024-03-29T12:27:48;1.92;;;1.33;;
65835;SDS011;52595;51.608;7.216;2024-03-29T12:30:14;1.52;;;1.15;;
65835;SDS011;52595;51.608;7.216;2024-03-29T12:32:40;1.50;;;1.30;;
65835;SDS011;52595;51.608;7.216;2024-03-29T12:35:12;3.13;;;1.40;;
65835;SDS011;52595;51.608;7.216;2024-03-29T12:37:49;3.38;;;1.50;;
65835;SDS011;52595;51.608;7.216;2024-03-29T12:40:18;3.45;;;1.60;;
65835;SDS011;52595;51.608;7.216;2024-03-29T12:42:50;4.05;;;1.67;;
65835;SDS011;52595;51.608;7.216;2024-03-29T12:45:17;2.85;;;1.60;;
65835;SDS011;52595;51.608;7.216;2024-03-29T12:47:43;3.75;;;1.80;;
65835;SDS011;52595;51.608;7.216;2024-03-29T12:50:09;3.83;;;1.90;;
65835;SDS011;52595;51.608;7.216;2024-03-29T12:52:41;5.78;;;2.03;;
65835;SDS011;52595;51.608;7.216;2024-03-29T12:55:07;5.38;;;1.85;;
65835;SDS011;52595;51.608;7.216;2024-03-29T12:57:33;3.20;;;1.73;;
65835;SDS011;52595;51.608;7.216;2024-03-29T13:00:00;4.43;;;2.00;;
65835;SDS011;52595;51.608;7.216;2024-03-29T13:02:26;2.88;;;1.90;;
65835;SDS011;52595;51.608;7.216;2024-03-29T13:04:51;4.35;;;1.63;;
65835;SDS011;52595;51.608;7.216;2024-03-29T13:07:16;3.78;;;1.80;;
65835;SDS011;52595;51.608;7.216;2024-03-29T13:09:42;4.55;;;1.90;;
65835;SDS011;52595;51.608;7.216;2024-03-29T13:12:07;4.68;;;1.50;;
65835;SDS011;52595;51.608;7.216;2024-03-29T13:14:33;4.45;;;1.42;;
65835;SDS011;52595;51.608;7.216;2024-03-29T13:16:59;3.30;;;1.42;;
65835;SDS011;52595;51.608;7.216;2024-03-29T13:19:24;4.18;;;1.50;;
65835;SDS011;52595;51.608;7.216;2024-03-29T13:21:50;2.55;;;1.30;;
65835;SDS011;52595;51.608;7.216;2024-03-29T13:24:15;3.38;;;1.50;;
65835;SDS011;52595;51.608;7.216;2024-03-29T13:26:41;2.15;;;1.40;;
65835;SDS011;52595;51.608;7.216;2024-03-29T13:29:06;2.00;;;1.38;;
65835;SDS011;52595;51.608;7.216;2024-03-29T13:31:32;1.70;;;1.58;;
65835;SDS011;52595;51.608;7.216;2024-03-29T13:33:58;1.73;;;1.63;;
65835;SDS011;52595;51.608;7.216;2024-03-29T13:36:37;4.47;;;1.85;;
65835;SDS011;52595;51.608;7.216;2024-03-29T13:39:07;1.65;;;1.55;;
65835;SDS011;52595;51.608;7.216;2024-03-29T13:41:33;3.58;;;1.90;;
65835;SDS011;52595;51.608;7.216;2024-03-29T13:44:02;2.33;;;1.60;;
65835;SDS011;52595;51.608;7.216;2024-03-29T13:46:34;2.17;;;1.83;;
65835;SDS011;52595;51.608;7.216;2024-03-29T13:49:02;2.30;;;2.00;;
65835;SDS011;52595;51.608;7.216;2024-03-29T13:51:28;2.58;;;2.13;;
65835;SDS011;52595;51.608;7.216;2024-03-29T13:53:54;2.03;;;1.90;;
65835;SDS011;52595;51.608;7.216;2024-03-29T13:56:20;2.08;;;1.85;;
65835;SDS011;52595;51.608;7.216;2024-03-29T13:58:46;2.60;;;1.80;;
65835;SDS011;52595;51.608;7.216;2024-03-29T14:01:12;2.13;;;1.90;;
65835;SDS011;52595;51.608;7.216;2024-03-29T14:03:37;4.38;;;2.20;;
65835;SDS011;52595;51.608;7.216;2024-03-29T14:06:03;3.97;;;2.20;;
65835;SDS011;52595;51.608;7.216;2024-03-29T14:08:30;2.65;;;2.22;;
65835;SDS011;52595;51.608;7.216;2024-03-29T14:10:56;2.40;;;2.20;;
65835;SDS011;52595;51.608;7.216;2024-03-29T14:13:21;3.63;;;2.35;;
65835;SDS011;52595;51.608;7.216;2024-03-29T14:15:47;11.07;;;3.10;;
65835;SDS011;52595;51.608;7.216;2024-03-29T14:18:12;3.40;;;2.90;;
65835;SDS011;52595;51.608;7.216;2024-03-29T14:20:38;3.92;;;2.95;;
65835;SDS011;52595;51.608;7.216;2024-03-29T14:23:04;4.88;;;3.80;;
65835;SDS011;52595;51.608;7.216;2024-03-29T14:25:31;3.60;;;3.30;;
65835;SDS011;52595;51.608;7.216;2024-03-29T14:27:57;3.53;;;3.22;;
65835;SDS011;52595;51.608;7.216;2024-03-29T14:30:24;3.70;;;3.30;;
65835;SDS011;52595;51.608;7.216;2024-03-29T14:32:50;3.50;;;3.20;;
65835;SDS011;52595;51.608;7.216;2024-03-29T14:35:17;2.75;;;2.50;;
65835;SDS011;52595;51.608;7.216;2024-03-29T14:37:43;1.90;;;1.80;;
65835;SDS011;52595;51.608;7.216;2024-03-29T14:40:10;3.53;;;1.60;;
65835;SDS011;52595;51.608;7.216;2024-03-29T14:42:37;1.65;;;1.55;;
65835;SDS011;52595;51.608;7.216;2024-03-29T14:45:04;2.13;;;1.40;;
65835;SDS011;52595;51.608;7.216;2024-03-29T14:47:31;1.95;;;1.33;;
65835;SDS011;52595;51.608;7.216;2024-03-29T14:50:00;1.50;;;1.40;;
65835;SDS011;52595;51.608;7.216;2024-03-29T14:52:28;1.40;;;1.30;;
65835;SDS011;52595;51.608;7.216;2024-03-29T14:54:53;1.50;;;1.40;;